createdAt,value
2018-09-05T00:01:14.518Z,36.90
2018-09-05T00:06:09.577Z,39.93
2018-09-05T00:11:05.161Z,40.77
2018-09-05T00:16:01.437Z,38.67
2018-09-05T00:20:56.514Z,38.50
2018-09-05T00:25:51.428Z,36.80
2018-09-05T00:30:46.398Z,36.63
2018-09-05T00:35:41.789Z,35.87
2018-09-05T00:40:36.297Z,38.13
2018-09-05T00:45:31.650Z,35.27
2018-09-05T00:50:26.176Z,37.13
2018-09-05T00:55:20.686Z,35.57
2018-09-05T01:00:15.223Z,36.17
2018-09-05T01:05:09.660Z,35.43
2018-09-05T01:10:04.624Z,36.03
2018-09-05T01:14:59.916Z,34.07
2018-09-05T01:19:54.569Z,34.33
2018-09-05T01:24:49.030Z,36.07
2018-09-05T01:29:43.734Z,38.00
2018-09-05T01:34:39.986Z,35.13
2018-09-05T01:39:34.473Z,36.23
2018-09-05T01:44:28.938Z,38.27
2018-09-05T01:49:23.636Z,38.20
2018-09-05T01:54:18.296Z,36.93
2018-09-05T01:59:12.761Z,37.97
2018-09-05T02:04:07.406Z,37.37
2018-09-05T02:09:01.900Z,36.40
2018-09-05T02:13:56.533Z,35.50
2018-09-05T02:18:51.014Z,38.73
2018-09-05T02:23:45.480Z,38.93
2018-09-05T02:28:40.126Z,38.33
2018-09-05T02:33:34.672Z,38.33
2018-09-05T02:38:29.343Z,38.00
2018-09-05T02:43:29.472Z,36.83
2018-09-05T02:48:24.743Z,36.53
2018-09-05T02:53:19.260Z,35.93
2018-09-05T02:58:13.998Z,37.33
2018-09-05T03:03:08.512Z,38.90
2018-09-05T03:08:03.066Z,38.27
2018-09-05T03:12:57.806Z,35.90
2018-09-05T03:17:52.246Z,38.97
2018-09-05T03:22:47.200Z,37.47
2018-09-05T03:27:41.802Z,37.90
2018-09-05T03:32:36.425Z,36.03
2018-09-05T03:37:30.904Z,35.87
2018-09-05T03:42:25.344Z,36.53
2018-09-05T03:47:19.918Z,34.20
2018-09-05T03:52:14.442Z,35.80
2018-09-05T03:57:08.924Z,36.50
2018-09-05T04:02:03.370Z,36.13
2018-09-05T04:06:57.872Z,36.90
2018-09-05T04:11:52.488Z,35.67
2018-09-05T04:16:46.971Z,33.30
2018-09-05T04:21:41.433Z,34.40
2018-09-05T04:26:35.884Z,34.33
2018-09-05T04:31:30.547Z,33.73
2018-09-05T04:36:25.193Z,30.07
2018-09-05T04:41:19.642Z,28.93
2018-09-05T04:46:14.131Z,26.13
2018-09-05T04:51:08.584Z,24.33
2018-09-05T04:56:03.204Z,23.77
2018-09-05T05:00:58.012Z,22.50
2018-09-05T05:05:52.494Z,23.50
2018-09-05T05:10:47.466Z,22.77
2018-09-05T05:15:42.090Z,22.57
2018-09-05T05:20:36.704Z,22.30
2018-09-05T05:25:31.343Z,22.77
2018-09-05T05:30:25.848Z,21.37
2018-09-05T05:35:20.376Z,21.00
2018-09-05T05:40:14.882Z,20.50
2018-09-05T05:45:09.582Z,20.53
2018-09-05T05:50:04.555Z,19.30
2018-09-05T05:54:59.151Z,20.10
2018-09-05T05:59:53.796Z,21.17
2018-09-05T06:04:48.284Z,19.77
2018-09-05T06:09:42.858Z,19.63
2018-09-05T06:14:37.740Z,19.07
2018-09-05T06:19:32.205Z,19.80
2018-09-05T06:24:26.703Z,18.60
2018-09-05T06:29:21.329Z,18.73
2018-09-05T06:34:15.907Z,19.13
2018-09-05T06:39:11.328Z,19.33
2018-09-05T06:44:06.283Z,20.70
2018-09-05T06:49:00.731Z,21.63
2018-09-05T06:53:55.205Z,22.30
2018-09-05T06:58:50.027Z,20.93
2018-09-05T07:03:44.604Z,21.17
2018-09-05T07:08:39.812Z,22.83
2018-09-05T07:13:34.579Z,23.10
2018-09-05T07:18:30.386Z,24.90
2018-09-05T07:23:25.135Z,24.97
2018-09-05T07:28:19.878Z,23.50
2018-09-05T07:33:14.629Z,24.03
2018-09-05T07:38:09.362Z,23.27
2018-09-05T07:43:04.104Z,23.70
2018-09-05T07:47:59.148Z,26.43
2018-09-05T07:52:53.831Z,29.07
2018-09-05T07:57:48.604Z,26.43
2018-09-05T08:02:43.320Z,26.10
2018-09-05T08:07:38.018Z,29.03
2018-09-05T08:12:32.782Z,28.37
2018-09-05T08:17:27.936Z,31.37
2018-09-05T08:22:22.748Z,33.00
2018-09-05T08:27:21.785Z,30.93
2018-09-05T08:32:16.633Z,32.13
2018-09-05T08:37:11.641Z,29.77
2018-09-05T08:42:06.430Z,30.53
2018-09-05T08:47:01.483Z,29.87
2018-09-05T08:51:56.462Z,27.33
2018-09-05T08:56:51.267Z,28.27
2018-09-05T09:01:46.058Z,29.73
2018-09-05T09:06:41.068Z,26.87
2018-09-05T09:11:36.102Z,25.67
2018-09-05T09:16:31.380Z,26.63
2018-09-05T09:21:26.120Z,26.10
2018-09-05T09:26:20.832Z,26.50
2018-09-05T09:31:15.668Z,27.23
2018-09-05T09:36:10.830Z,25.50
2018-09-05T09:41:05.818Z,26.53
2018-09-05T09:46:00.705Z,25.60
2018-09-05T09:50:55.486Z,24.93
2018-09-05T09:55:50.509Z,26.77
2018-09-05T10:00:50.568Z,27.47
2018-09-05T10:05:50.918Z,25.87
2018-09-05T10:10:51.333Z,24.63
2018-09-05T10:15:52.021Z,25.30
2018-09-05T10:20:46.819Z,25.90
2018-09-05T10:25:41.866Z,23.87
2018-09-05T10:30:36.821Z,23.77
2018-09-05T10:35:31.546Z,22.80
2018-09-05T10:40:26.306Z,21.83
2018-09-05T10:45:21.488Z,21.97
2018-09-05T10:50:16.255Z,24.33
2018-09-05T10:55:12.737Z,25.87
2018-09-05T11:00:07.512Z,22.57
2018-09-05T11:05:02.523Z,21.57
2018-09-05T11:09:57.265Z,19.77
2018-09-05T11:14:52.518Z,23.90
2018-09-05T11:19:47.270Z,22.10
2018-09-05T11:24:42.433Z,20.50
2018-09-05T11:29:37.230Z,19.03
2018-09-05T11:34:32.118Z,17.87
2018-09-05T11:39:27.053Z,18.13
2018-09-05T11:44:22.022Z,18.43
2018-09-05T11:49:16.991Z,19.10
2018-09-05T11:54:12.117Z,18.03
2018-09-05T11:59:07.309Z,14.70
2018-09-05T12:04:02.142Z,15.13
2018-09-05T12:08:56.909Z,12.57
2018-09-05T12:13:51.993Z,13.20
2018-09-05T12:18:46.891Z,12.87
2018-09-05T12:23:41.794Z,12.70
2018-09-05T12:28:36.908Z,12.30
2018-09-05T12:33:31.721Z,12.93
2018-09-05T12:38:26.562Z,12.67
2018-09-05T12:43:21.627Z,14.90
2018-09-05T12:48:16.696Z,13.40
2018-09-05T12:53:11.504Z,12.97
2018-09-05T12:58:06.468Z,12.40
2018-09-05T13:03:01.471Z,11.40
2018-09-05T13:07:56.740Z,13.00
2018-09-05T13:12:52.190Z,11.17
2018-09-05T13:17:47.198Z,11.50
2018-09-05T13:22:42.278Z,11.23
2018-09-05T13:27:37.763Z,12.30
2018-09-05T13:32:33.504Z,12.53
2018-09-05T13:37:28.806Z,12.17
2018-09-05T13:42:24.126Z,12.10
2018-09-05T13:47:19.421Z,11.90
2018-09-05T13:52:18.557Z,11.83
2018-09-05T13:57:13.837Z,11.93
2018-09-05T14:02:08.561Z,10.43
2018-09-05T14:07:03.314Z,10.30
2018-09-05T14:11:58.021Z,9.67
2018-09-05T14:16:52.778Z,11.10
2018-09-05T14:21:47.620Z,11.77
2018-09-05T14:26:42.868Z,11.17
2018-09-05T14:31:38.080Z,10.57
2018-09-05T14:36:32.854Z,10.73
2018-09-05T14:41:27.607Z,11.00
2018-09-05T14:46:22.582Z,11.53
2018-09-05T14:51:17.388Z,11.77
2018-09-05T14:56:12.150Z,10.53
2018-09-05T15:01:07.374Z,11.47
2018-09-05T15:06:02.124Z,11.57
2018-09-05T15:10:56.882Z,10.17
2018-09-05T15:15:51.718Z,10.13
2018-09-05T15:20:46.470Z,10.10
2018-09-05T15:25:41.884Z,9.33
2018-09-05T15:30:36.970Z,9.17
2018-09-05T15:35:31.699Z,9.30
2018-09-05T15:40:26.494Z,9.10
2018-09-05T15:45:21.460Z,9.30
2018-09-05T15:50:16.190Z,8.47
2018-09-05T15:55:14.261Z,8.43
2018-09-05T16:00:09.071Z,9.03
2018-09-05T16:05:03.969Z,8.90
2018-09-05T16:09:58.752Z,8.97
2018-09-05T16:14:53.666Z,9.00
2018-09-05T16:19:48.864Z,9.43
2018-09-05T16:24:43.627Z,8.80
2018-09-05T16:29:38.418Z,8.20
2018-09-05T16:34:33.168Z,8.37
2018-09-05T16:39:28.115Z,8.00
2018-09-05T16:44:22.928Z,9.50
2018-09-05T16:49:18.048Z,8.80
2018-09-05T16:54:13.002Z,8.90
2018-09-05T16:59:07.763Z,8.43
2018-09-05T17:04:02.539Z,8.70
2018-09-05T17:08:57.017Z,9.23
2018-09-05T17:13:51.799Z,8.37
2018-09-05T17:18:46.312Z,8.60
2018-09-05T17:23:40.803Z,8.97
2018-09-05T17:28:35.376Z,9.47
2018-09-05T17:33:30.240Z,9.40
2018-09-05T17:38:24.734Z,10.20
2018-09-05T17:43:19.434Z,9.40
2018-09-05T17:48:14.111Z,8.90
2018-09-05T17:53:08.700Z,8.90
2018-09-05T17:58:03.628Z,7.97
2018-09-05T18:02:58.105Z,7.60
2018-09-05T18:07:52.645Z,7.97
2018-09-05T18:12:47.374Z,8.03
2018-09-05T18:17:42.332Z,8.00
2018-09-05T18:22:36.886Z,8.80
2018-09-05T18:27:31.438Z,9.23
2018-09-05T18:32:26.233Z,13.13
2018-09-05T18:37:22.578Z,11.30
2018-09-05T18:42:17.361Z,12.30
2018-09-05T18:47:12.595Z,14.37
2018-09-05T18:52:07.600Z,13.30
2018-09-05T18:57:02.534Z,13.37
2018-09-05T19:01:57.215Z,11.63
2018-09-05T19:06:52.103Z,13.30
2018-09-05T19:11:46.708Z,15.20
2018-09-05T19:16:41.288Z,16.30
2018-09-05T19:21:36.027Z,16.07
2018-09-05T19:26:30.518Z,16.17
2018-09-05T19:31:25.495Z,17.20
2018-09-05T19:36:20.189Z,17.03
2018-09-05T19:41:14.964Z,18.60
2018-09-05T19:46:09.836Z,17.23
2018-09-05T19:51:04.326Z,17.97
2018-09-05T19:55:58.799Z,18.60
2018-09-05T20:06:55.310Z,19.07
2018-09-05T20:11:51.560Z,18.57
2018-09-05T20:16:46.177Z,20.17
2018-09-05T20:21:41.158Z,17.77
2018-09-05T20:26:35.677Z,18.07
2018-09-05T20:31:30.838Z,18.60
2018-09-05T20:36:25.323Z,19.30
2018-09-05T20:41:20.314Z,19.37
2018-09-05T20:46:15.022Z,19.33
2018-09-05T20:51:09.696Z,19.47
2018-09-05T20:56:04.467Z,20.00
2018-09-05T21:00:59.047Z,19.97
2018-09-05T21:05:53.664Z,20.47
2018-09-05T21:10:48.299Z,21.13
2018-09-05T21:15:42.800Z,23.23
2018-09-05T21:20:37.416Z,25.67
2018-09-05T21:25:32.118Z,26.33
2018-09-05T21:30:27.596Z,26.20
2018-09-05T21:35:23.149Z,25.57
2018-09-05T21:40:17.708Z,25.03
2018-09-05T21:45:12.864Z,24.77
2018-09-05T21:50:08.094Z,24.33
2018-09-05T21:55:02.940Z,24.00
2018-09-05T21:59:57.441Z,23.87
2018-09-05T22:04:51.944Z,24.43
2018-09-05T22:09:46.492Z,24.73
2018-09-05T22:14:41.134Z,27.13
2018-09-05T22:19:35.960Z,29.53
2018-09-05T22:24:30.676Z,28.30
2018-09-05T22:29:25.174Z,26.13
2018-09-05T22:34:20.255Z,25.80
2018-09-05T22:39:14.780Z,25.87
2018-09-05T22:44:26.494Z,24.83
2018-09-05T22:50:46.859Z,24.63
2018-09-05T22:56:32.526Z,25.07
2018-09-05T23:03:45.918Z,27.53
2018-09-05T23:08:44.826Z,30.83
2018-09-05T23:13:58.892Z,31.47
2018-09-05T23:21:20.846Z,30.10
2018-09-05T23:26:15.346Z,29.43
2018-09-05T23:31:09.987Z,29.33
2018-09-05T23:36:05.190Z,29.73
2018-09-05T23:40:59.868Z,31.00
2018-09-05T23:45:54.774Z,32.07
2018-09-05T23:50:49.550Z,33.83
2018-09-05T23:55:44.457Z,31.83
